Terminal Aerodrome Forecast
Issued by NWS Shreveport, LA

Home | Current Version | Previous Version | Text Only | Print | Product List | Glossary On
Versions: 1 2 3 4 5 6 7 8 9 10 11 12 13 14 15 16 17 18 19 20 21 22 23 24 25 26 27 28 29 30 31 32
990
FTUS44 KSHV 232340
TAFLFK
TAF
KLFK 232340Z 2400/2424 14007KT P6SM BKN060 BKN250
     FM240600 14005KT P6SM OVC025
     FM240900 12004KT 5SM BR OVC015
     FM241200 13004KT 5SM BR BKN007 OVC015
     FM241600 15006KT P6SM OVC015
     FM241800 17007KT P6SM VCTS BKN020 OVC030CB=

USA.gov is the U.S. government's official web portal to all federal, state and local government web resources and services.